Hope, Texas
Current Conditions -  °F | °C
As of 3:51 AM on Sunday 23 Nov 2014 (Local Time) from KVCT Reporting Station
Clear Clear  
Wind Chill: 59°   Ceiling: Unl
Heat Index: 59°   Visibility: 10mi
Dew Point: 55°   Wind: 5mph
Humidity: 87%   Direction: 250°WSW
Pressure: 29.7"   Gusts: NA
Location:  29.2421°N, 97.0692°W
Report Text: KVCT 230951Z AUTO 25004KT 10SM CLR 15/13 A2970 RMK AO2 SLP056 T01500128
Loading
Personal Weather Stations






























Interactive Weather Map New forecast layout! Learn more

10-Day Weather Forecast

Advertisements
Track Severe Weather on mobile